createdAt,value
2023-12-11T05:26:02.869Z,12.85
2023-12-11T05:30:07.733Z,10.20
2023-12-11T05:34:10.543Z,13.73
2023-12-11T05:38:13.743Z,19.90
2023-12-11T05:42:16.556Z,19.57
2023-12-11T05:46:20.144Z,13.25
2023-12-11T05:50:22.882Z,16.80
2023-12-11T05:54:26.386Z,13.20
2023-12-11T05:58:29.221Z,15.05
2023-12-11T06:02:32.478Z,11.75
2023-12-11T06:06:35.641Z,10.90
2023-12-11T06:10:38.506Z,6.87
2023-12-11T06:14:44.532Z,11.25
2023-12-11T06:18:49.260Z,10.63
2023-12-11T06:22:52.563Z,9.97
2023-12-11T06:26:55.382Z,12.82
2023-12-11T06:30:58.539Z,11.73
2023-12-11T06:35:01.498Z,10.03
2023-12-11T06:39:05.019Z,9.35
2023-12-11T06:43:07.882Z,10.32
2023-12-11T06:47:11.136Z,10.63
2023-12-11T06:51:17.195Z,10.60
2023-12-11T06:55:20.445Z,15.45
2023-12-11T06:59:23.872Z,13.03
2023-12-11T07:03:27.390Z,12.95
2023-12-11T07:07:30.323Z,12.07
2023-12-11T07:11:33.608Z,10.65
2023-12-11T07:15:36.513Z,9.73
2023-12-11T07:19:39.804Z,11.95
2023-12-11T07:23:42.990Z,18.58
2023-12-11T07:27:46.816Z,14.70
2023-12-11T07:31:49.694Z,11.93
2023-12-11T07:35:53.518Z,10.85
2023-12-11T07:39:58.191Z,11.23
2023-12-11T07:44:03.303Z,12.15
2023-12-11T07:48:07.551Z,12.30
2023-12-11T07:52:11.555Z,13.52
2023-12-11T07:56:24.733Z,13.23
2023-12-11T08:00:27.860Z,12.05
2023-12-11T08:04:31.096Z,11.82
2023-12-11T08:08:33.883Z,12.07
2023-12-11T08:12:37.199Z,13.18
2023-12-11T08:16:40.111Z,12.73
2023-12-11T08:20:45.154Z,14.87
2023-12-11T08:24:48.980Z,13.20
2023-12-11T08:28:52.209Z,12.23
2023-12-11T08:32:55.063Z,12.68
2023-12-11T08:36:58.454Z,12.07
2023-12-11T08:41:01.360Z,12.73
2023-12-11T08:45:05.840Z,16.87
2023-12-11T08:49:08.962Z,13.77
2023-12-11T08:53:12.228Z,13.48
2023-12-11T08:57:14.957Z,13.68
2023-12-11T09:01:19.111Z,13.87
2023-12-11T09:05:22.035Z,14.07
2023-12-11T09:09:25.228Z,12.85
2023-12-11T09:13:29.645Z,13.55
2023-12-11T09:17:33.732Z,15.50
2023-12-11T09:21:37.545Z,17.33
2023-12-11T09:25:40.664Z,16.37
2023-12-11T09:29:43.730Z,15.63
2023-12-11T09:33:47.429Z,14.38
2023-12-11T09:37:53.159Z,14.77
2023-12-11T09:42:01.224Z,14.67
2023-12-11T09:46:09.032Z,17.80
2023-12-11T09:50:21.701Z,20.40
2023-12-11T09:54:28.137Z,14.48
2023-12-11T09:58:33.729Z,16.60
2023-12-11T10:02:42.601Z,17.08
2023-12-11T10:06:56.020Z,16.17
2023-12-11T10:11:19.236Z,21.10
2023-12-11T10:15:26.852Z,15.85
2023-12-11T10:19:34.549Z,21.35
2023-12-11T10:23:37.880Z,22.03
2023-12-11T10:27:47.193Z,16.27
2023-12-11T10:31:52.309Z,18.77
2023-12-11T10:36:14.352Z,18.15
2023-12-11T10:40:18.166Z,20.70
2023-12-11T10:44:40.271Z,19.12
2023-12-11T10:49:27.280Z,19.50
2023-12-11T10:53:33.326Z,19.23
2023-12-11T10:57:44.639Z,19.17
2023-12-11T11:01:52.900Z,18.10
2023-12-11T11:05:57.007Z,16.47
2023-12-11T11:10:18.798Z,15.85
2023-12-11T11:14:52.429Z,15.23
2023-12-11T11:19:10.315Z,15.82
2023-12-11T11:23:20.146Z,12.80
2023-12-11T11:27:43.854Z,14.63
2023-12-11T11:36:23.205Z,14.07
2023-12-11T11:40:48.651Z,13.38
2023-12-11T11:44:58.974Z,12.43
2023-12-11T11:49:02.528Z,12.93
2023-12-11T11:53:12.764Z,12.93
2023-12-11T11:57:16.805Z,14.35
2023-12-11T12:01:21.118Z,12.85
2023-12-11T12:05:35.678Z,14.17
2023-12-11T12:09:51.394Z,15.00
2023-12-11T12:14:00.708Z,15.30
2023-12-11T12:18:10.831Z,16.80
2023-12-11T12:22:15.812Z,13.27
2023-12-11T12:26:18.838Z,16.05
2023-12-11T12:30:23.574Z,16.67
2023-12-11T12:34:28.329Z,16.08
2023-12-11T12:38:32.481Z,16.35
2023-12-11T12:42:35.405Z,16.12
2023-12-11T12:46:44.085Z,16.83
2023-12-11T12:50:47.461Z,17.27
2023-12-11T12:54:51.626Z,15.90
2023-12-11T12:58:57.382Z,16.00
2023-12-11T13:03:01.024Z,16.10
2023-12-11T13:07:13.381Z,15.73
2023-12-11T13:11:16.753Z,17.37
2023-12-11T13:15:19.519Z,16.08
2023-12-11T13:19:26.316Z,15.60
2023-12-11T13:23:29.215Z,16.55
2023-12-11T13:27:32.622Z,14.10
2023-12-11T13:31:35.618Z,16.70
2023-12-11T13:35:38.586Z,14.82
2023-12-11T13:39:41.379Z,17.20
2023-12-11T13:43:44.558Z,16.00
2023-12-11T13:47:47.320Z,19.73
2023-12-11T13:51:50.413Z,21.20
2023-12-11T13:55:53.227Z,21.73
2023-12-11T13:59:56.233Z,22.80
2023-12-11T14:03:59.075Z,23.12
2023-12-11T14:08:05.536Z,22.73
2023-12-11T14:12:08.810Z,18.50
2023-12-11T14:16:12.452Z,17.52
2023-12-11T14:20:15.309Z,18.70
2023-12-11T14:24:18.985Z,21.20
2023-12-11T14:28:21.691Z,24.45
2023-12-11T14:32:24.906Z,20.87
2023-12-11T14:36:27.993Z,21.62
2023-12-11T14:40:31.569Z,28.08
2023-12-11T14:44:35.722Z,29.15
2023-12-11T14:48:40.068Z,29.70
2023-12-11T14:52:43.493Z,30.92
2023-12-11T14:56:47.009Z,27.60
2023-12-11T15:00:49.862Z,28.50
2023-12-11T15:04:53.119Z,24.70
2023-12-11T15:08:55.878Z,25.75
2023-12-11T15:12:59.410Z,28.20
2023-12-11T15:17:02.481Z,16.00
2023-12-11T15:21:05.708Z,17.08
2023-12-11T15:25:12.337Z,18.08
2023-12-11T15:29:15.465Z,14.00
2023-12-11T15:33:18.302Z,14.45
2023-12-11T15:37:21.458Z,14.30
2023-12-11T15:41:24.174Z,17.73
2023-12-11T15:45:27.229Z,13.95
2023-12-11T15:49:30.115Z,14.07
2023-12-11T15:53:34.436Z,14.53
2023-12-11T15:57:37.138Z,14.60
2023-12-11T16:01:40.303Z,16.40
2023-12-11T16:05:43.429Z,27.37
